Time;durP1;ratioP1;P1;durP2;ratioP2;P2;SDS_P1;SDS_P2;PMS_P1;PMS_P2;Temp;Humidity;BMP_temperature;BMP_pressure;BME280_temperature;BME280_humidity;BME280_pressure;Samples;Min_cycle;Max_cycle;Signal;HPM_P1;HPM_P2
2022/04/28 00:00:41;;;;;;;27.60;14.40;;;;;;;;;;5056617;28;20029;-76
2022/04/28 00:03:10;;;;;;;26.77;14.73;;;;;;;;;;5056592;28;20037;-76
2022/04/28 00:05:38;;;;;;;31.05;15.93;;;;;;;;;;5051909;28;20076;-79
2022/04/28 00:08:06;;;;;;;27.77;14.43;;;;;;;;;;5046791;28;20049;-79
2022/04/28 00:10:33;;;;;;;29.98;15.45;;;;;;;;;;5037460;28;20092;-80
2022/04/28 00:13:01;;;;;;;30.80;15.63;;;;;;;;;;5037960;28;20057;-80
2022/04/28 00:15:28;;;;;;;27.80;15.88;;;;;;;;;;5036768;28;20069;-80
2022/04/28 00:17:55;;;;;;;25.80;14.13;;;;;;;;;;5036798;28;20077;-80
2022/04/28 00:20:24;;;;;;;28.85;15.25;;;;;;;;;;5036868;28;20041;-80
2022/04/28 00:22:50;;;;;;;27.88;15.95;;;;;;;;;;5036861;28;20523;-76
2022/04/28 00:25:17;;;;;;;27.25;13.82;;;;;;;;;;5037069;28;20053;-78
2022/04/28 00:27:44;;;;;;;29.92;14.77;;;;;;;;;;5036665;28;20049;-80
2022/04/28 00:30:11;;;;;;;30.67;15.65;;;;;;;;;;5036133;28;20045;-77
2022/04/28 00:32:38;;;;;;;31.95;17.10;;;;;;;;;;5036059;28;20045;-79
2022/04/28 00:35:06;;;;;;;28.23;15.18;;;;;;;;;;5036174;28;20050;-78
2022/04/28 00:37:34;;;;;;;28.83;14.68;;;;;;;;;;5036480;28;20053;-79
2022/04/28 00:40:03;;;;;;;28.92;16.48;;;;;;;;;;5036356;28;20045;-78
2022/04/28 00:42:30;;;;;;;26.98;14.45;;;;;;;;;;5036321;28;20122;-78
2022/04/28 00:44:57;;;;;;;29.67;16.25;;;;;;;;;;5035604;28;20495;-79
2022/04/28 00:50:38;;;;;;;31.73;16.23;;;;;;;;;;5054215;28;20102;-79
2022/04/28 00:53:10;;;;;;;30.55;15.05;;;;;;;;;;5033163;28;20048;-79
2022/04/28 00:55:37;;;;;;;27.27;15.70;;;;;;;;;;5059802;28;20426;-79
2022/04/28 00:58:04;;;;;;;30.05;16.05;;;;;;;;;;5059294;28;20091;-78
2022/04/28 01:00:31;;;;;;;29.08;15.00;;;;;;;;;;5060680;28;20114;-79
2022/04/28 01:02:58;;;;;;;28.52;15.07;;;;;;;;;;5062259;28;20045;-77
2022/04/28 01:05:26;;;;;;;32.00;15.73;;;;;;;;;;5062907;28;20052;-78
2022/04/28 01:07:53;;;;;;;30.90;14.98;;;;;;;;;;5061909;28;20052;-77
2022/04/28 01:10:21;;;;;;;29.42;15.00;;;;;;;;;;5063524;28;20495;-80
2022/04/28 01:12:48;;;;;;;30.20;15.68;;;;;;;;;;5059612;28;20044;-80
2022/04/28 01:15:15;;;;;;;31.63;16.33;;;;;;;;;;5060883;28;20053;-77
2022/04/28 01:17:42;;;;;;;31.70;15.60;;;;;;;;;;5061099;28;20045;-79
2022/04/28 01:20:09;;;;;;;29.30;14.45;;;;;;;;;;5059523;28;20060;-78
2022/04/28 01:22:38;;;;;;;29.65;15.30;;;;;;;;;;5060236;28;20049;-79
2022/04/28 01:25:07;;;;;;;30.48;15.90;;;;;;;;;;5059286;28;20491;-80
2022/04/28 01:27:35;;;;;;;32.88;16.55;;;;;;;;;;5061178;28;20147;-79
2022/04/28 01:30:03;;;;;;;32.50;15.90;;;;;;;;;;5064268;28;20053;-77
2022/04/28 01:32:30;;;;;;;32.53;17.10;;;;;;;;;;5061904;28;20053;-78
2022/04/28 01:34:57;;;;;;;33.42;17.23;;;;;;;;;;5061362;28;20040;-79
2022/04/28 01:37:25;;;;;;;29.77;16.15;;;;;;;;;;5063417;22;20049;-79
2022/04/28 01:39:55;;;;;;;33.35;16.55;;;;;;;;;;5038410;28;20544;-80
2022/04/28 01:42:22;;;;;;;32.95;17.02;;;;;;;;;;5040218;28;20128;-78
2022/04/28 01:44:49;;;;;;;34.15;16.20;;;;;;;;;;5038820;28;20065;-79
2022/04/28 01:47:16;;;;;;;29.63;15.73;;;;;;;;;;5045711;28;20045;-80
2022/04/28 01:49:43;;;;;;;31.95;17.00;;;;;;;;;;5058821;28;20136;-80
2022/04/28 01:54:59;;;;;;;32.35;15.80;;;;;;;;;;5058765;28;20079;-79
2022/04/28 01:57:26;;;;;;;30.58;15.68;;;;;;;;;;5058962;28;20056;-79
2022/04/28 01:59:53;;;;;;;31.52;15.32;;;;;;;;;;5058742;28;20064;-79
2022/04/28 02:02:19;;;;;;;34.65;17.13;;;;;;;;;;5058894;28;20045;-80
2022/04/28 02:04:46;;;;;;;32.42;16.85;;;;;;;;;;5057199;28;20052;-80
2022/04/28 02:07:13;;;;;;;31.25;15.90;;;;;;;;;;5059282;28;20463;-79
2022/04/28 02:09:40;;;;;;;32.05;16.33;;;;;;;;;;5059175;28;20076;-80
2022/04/28 02:12:10;;;;;;;35.35;16.38;;;;;;;;;;5056738;28;20076;-79
2022/04/28 02:14:37;;;;;;;39.00;18.50;;;;;;;;;;5055563;28;20049;-78
2022/04/28 02:17:05;;;;;;;34.47;16.35;;;;;;;;;;5054598;28;20466;-78
2022/04/28 02:19:32;;;;;;;36.60;18.20;;;;;;;;;;5055321;28;20052;-78
2022/04/28 02:21:59;;;;;;;37.10;19.00;;;;;;;;;;5054706;28;20060;-78
2022/04/28 02:24:26;;;;;;;36.08;19.52;;;;;;;;;;5054976;28;20073;-80
2022/04/28 02:26:53;;;;;;;41.92;19.05;;;;;;;;;;5055635;28;20045;-78
2022/04/28 02:29:21;;;;;;;37.15;19.70;;;;;;;;;;5055109;28;20494;-78
2022/04/28 02:31:48;;;;;;;41.95;21.15;;;;;;;;;;5055245;28;20052;-79
2022/04/28 02:34:15;;;;;;;42.42;19.20;;;;;;;;;;5055507;28;20084;-80
2022/04/28 02:36:41;;;;;;;36.38;19.38;;;;;;;;;;5054723;28;20052;-80
2022/04/28 02:39:09;;;;;;;37.97;18.50;;;;;;;;;;5055222;28;20140;-79
2022/04/28 02:41:36;;;;;;;39.50;19.38;;;;;;;;;;5054973;28;20072;-78
2022/04/28 02:44:04;;;;;;;38.75;18.63;;;;;;;;;;5055071;28;20490;-78
2022/04/28 02:46:32;;;;;;;38.80;19.42;;;;;;;;;;5054409;28;20049;-79
2022/04/28 02:48:59;;;;;;;40.78;20.50;;;;;;;;;;5054201;28;20041;-79
2022/04/28 02:51:26;;;;;;;44.42;21.85;;;;;;;;;;5054884;28;20045;-78
2022/04/28 02:53:53;;;;;;;41.38;19.75;;;;;;;;;;5055232;28;20170;-78
2022/04/28 02:56:20;;;;;;;40.58;20.55;;;;;;;;;;5054549;28;20044;-79
2022/04/28 02:58:47;;;;;;;42.83;20.50;;;;;;;;;;5054872;28;20148;-79
2022/04/28 03:01:13;;;;;;;43.25;21.20;;;;;;;;;;5054719;28;20136;-79
2022/04/28 03:03:42;;;;;;;42.60;21.55;;;;;;;;;;5054333;28;20048;-78
2022/04/28 03:11:38;;;;;;;44.45;21.30;;;;;;;;;;5054580;28;20191;-79
2022/04/28 03:14:06;;;;;;;42.38;20.15;;;;;;;;;;5054540;28;20095;-78
2022/04/28 03:16:32;;;;;;;42.80;21.15;;;;;;;;;;5053752;28;20045;-79
2022/04/28 03:19:01;;;;;;;43.42;21.08;;;;;;;;;;5054292;28;20064;-78
2022/04/28 03:21:27;;;;;;;46.17;21.60;;;;;;;;;;5054069;28;20126;-79
2022/04/28 03:23:54;;;;;;;43.30;20.30;;;;;;;;;;5055251;28;20044;-78
2022/04/28 03:26:21;;;;;;;39.40;19.13;;;;;;;;;;5054229;28;20041;-80
2022/04/28 03:28:48;;;;;;;45.53;21.45;;;;;;;;;;5053887;28;20525;-80
2022/04/28 03:31:15;;;;;;;40.13;19.15;;;;;;;;;;5054033;28;20045;-79
2022/04/28 03:33:42;;;;;;;43.10;19.30;;;;;;;;;;5053794;28;20527;-80
2022/04/28 03:38:51;;;;;;;43.03;19.88;;;;;;;;;;5053131;28;20087;-80
2022/04/28 03:41:18;;;;;;;44.55;19.83;;;;;;;;;;5053679;28;20053;-80
2022/04/28 03:43:45;;;;;;;42.25;19.65;;;;;;;;;;5054058;28;20052;-79
2022/04/28 03:46:12;;;;;;;41.55;19.83;;;;;;;;;;5053003;28;20083;-80
2022/04/28 03:48:39;;;;;;;38.50;18.70;;;;;;;;;;5053728;28;20049;-80
2022/04/28 03:51:06;;;;;;;41.50;20.33;;;;;;;;;;5053531;28;20059;-79
2022/04/28 03:53:34;;;;;;;42.75;20.40;;;;;;;;;;5053776;28;20045;-78
2022/04/28 03:56:01;;;;;;;39.75;19.42;;;;;;;;;;5053552;28;20045;-78
2022/04/28 03:58:27;;;;;;;44.13;20.95;;;;;;;;;;5053672;28;20052;-79
2022/04/28 04:00:54;;;;;;;43.08;19.55;;;;;;;;;;5053548;28;20053;-79
2022/04/28 04:03:21;;;;;;;41.03;20.88;;;;;;;;;;5053330;28;20051;-80
2022/04/28 04:05:49;;;;;;;45.90;21.95;;;;;;;;;;5053535;28;20063;-79
2022/04/28 04:08:16;;;;;;;43.92;21.63;;;;;;;;;;5053876;28;20045;-79
2022/04/28 04:10:44;;;;;;;42.33;20.40;;;;;;;;;;5056452;28;20052;-79
2022/04/28 04:13:11;;;;;;;43.58;20.83;;;;;;;;;;5058482;28;20053;-78
2022/04/28 04:15:38;;;;;;;47.33;20.98;;;;;;;;;;5057233;28;20103;-78
2022/04/28 04:18:05;;;;;;;47.28;21.02;;;;;;;;;;5055394;28;20060;-78
2022/04/28 04:20:31;;;;;;;49.53;22.88;;;;;;;;;;5055363;28;20553;-78
2022/04/28 04:22:59;;;;;;;46.03;23.15;;;;;;;;;;5054733;28;20052;-79
2022/04/28 04:25:25;;;;;;;48.45;22.63;;;;;;;;;;5055060;28;20049;-78
2022/04/28 04:27:54;;;;;;;50.78;22.85;;;;;;;;;;5053144;28;20049;-79
2022/04/28 04:33:04;;;;;;;47.05;21.63;;;;;;;;;;5053246;28;20183;-79
2022/04/28 04:35:31;;;;;;;53.30;22.65;;;;;;;;;;5054632;28;20049;-80
2022/04/28 04:37:58;;;;;;;48.35;22.30;;;;;;;;;;5053206;28;20052;-78
2022/04/28 04:40:25;;;;;;;50.08;21.67;;;;;;;;;;5052982;28;20056;-80
2022/04/28 04:42:52;;;;;;;46.40;20.73;;;;;;;;;;5052734;28;20045;-80
2022/04/28 04:45:20;;;;;;;47.75;22.80;;;;;;;;;;5053061;28;20049;-79
2022/04/28 04:47:47;;;;;;;53.58;23.75;;;;;;;;;;5052504;28;20060;-78
2022/04/28 04:50:14;;;;;;;52.38;23.75;;;;;;;;;;5053408;28;20049;-79
2022/04/28 04:52:40;;;;;;;49.00;22.52;;;;;;;;;;5053155;28;20049;-79
2022/04/28 04:55:08;;;;;;;50.22;23.33;;;;;;;;;;5052310;28;20099;-79
2022/04/28 04:57:34;;;;;;;55.85;25.52;;;;;;;;;;5052760;28;20048;-79
2022/04/28 05:00:02;;;;;;;50.17;22.10;;;;;;;;;;5052694;28;20094;-78
2022/04/28 05:02:30;;;;;;;51.65;21.58;;;;;;;;;;5051944;28;20085;-78
2022/04/28 05:04:57;;;;;;;46.70;20.13;;;;;;;;;;5052175;28;20049;-77
2022/04/28 05:07:29;;;;;;;50.40;22.42;;;;;;;;;;5052428;28;20059;-77
2022/04/28 05:09:56;;;;;;;54.35;23.10;;;;;;;;;;5053429;28;20045;-78
2022/04/28 05:12:23;;;;;;;52.08;22.02;;;;;;;;;;5052115;28;20041;-78
2022/04/28 05:14:50;;;;;;;52.20;22.60;;;;;;;;;;5053716;28;20095;-78
2022/04/28 05:17:17;;;;;;;51.03;23.42;;;;;;;;;;5052817;28;20056;-78
2022/04/28 05:19:45;;;;;;;48.97;22.08;;;;;;;;;;5052820;28;20145;-78
2022/04/28 05:22:14;;;;;;;50.90;21.90;;;;;;;;;;5052600;28;20506;-79
2022/04/28 05:24:40;;;;;;;48.33;21.92;;;;;;;;;;5052693;28;20041;-78
2022/04/28 05:27:07;;;;;;;42.63;20.33;;;;;;;;;;5051972;28;20102;-79
2022/04/28 05:29:34;;;;;;;49.50;21.63;;;;;;;;;;5052283;28;20060;-78
2022/04/28 05:32:01;;;;;;;46.72;20.83;;;;;;;;;;5052103;28;20049;-79
2022/04/28 05:34:28;;;;;;;51.78;22.27;;;;;;;;;;5053448;28;20040;-78
2022/04/28 05:36:56;;;;;;;53.97;26.08;;;;;;;;;;5051734;28;20106;-78
2022/04/28 05:39:23;;;;;;;47.40;23.10;;;;;;;;;;5053555;28;20051;-78
2022/04/28 05:41:50;;;;;;;44.03;22.02;;;;;;;;;;5055667;28;20057;-79
2022/04/28 05:47:01;;;;;;;47.22;23.45;;;;;;;;;;5040622;28;20061;-80
2022/04/28 05:49:28;;;;;;;50.28;23.48;;;;;;;;;;5036293;28;20073;-79
2022/04/28 05:51:57;;;;;;;48.50;20.73;;;;;;;;;;5037559;28;20050;-79
2022/04/28 05:54:24;;;;;;;43.80;21.48;;;;;;;;;;5037773;28;20052;-78
2022/04/28 05:56:51;;;;;;;39.42;18.67;;;;;;;;;;5036249;28;20049;-79
2022/04/28 05:59:18;;;;;;;40.63;19.20;;;;;;;;;;5036128;28;20049;-79
2022/04/28 06:01:45;;;;;;;39.95;20.35;;;;;;;;;;5036309;28;20049;-79
2022/04/28 06:04:12;;;;;;;41.40;20.15;;;;;;;;;;5036255;28;20045;-79
2022/04/28 06:06:39;;;;;;;39.75;19.90;;;;;;;;;;5036067;28;20492;-79
2022/04/28 06:09:07;;;;;;;41.70;18.75;;;;;;;;;;5038424;28;20072;-79
2022/04/28 06:11:34;;;;;;;41.75;19.67;;;;;;;;;;5039793;28;20057;-78
2022/04/28 06:14:01;;;;;;;38.08;19.23;;;;;;;;;;5038702;28;20396;-80
2022/04/28 06:16:28;;;;;;;40.15;19.63;;;;;;;;;;5037442;28;20397;-78
2022/04/28 06:18:55;;;;;;;40.80;20.05;;;;;;;;;;5038046;28;20049;-80
2022/04/28 06:21:25;;;;;;;42.72;19.83;;;;;;;;;;5038283;28;20080;-78
2022/04/28 06:23:51;;;;;;;35.63;19.27;;;;;;;;;;5035854;28;20045;-78
2022/04/28 06:26:19;;;;;;;38.58;20.15;;;;;;;;;;5037026;28;20057;-79
2022/04/28 06:28:46;;;;;;;39.10;19.52;;;;;;;;;;5035246;28;20111;-78
2022/04/28 06:31:13;;;;;;;37.25;19.15;;;;;;;;;;5037517;28;20057;-79
2022/04/28 06:33:41;;;;;;;36.58;18.60;;;;;;;;;;5038270;28;20053;-79
2022/04/28 06:36:07;;;;;;;41.15;19.73;;;;;;;;;;5036516;28;20053;-80
2022/04/28 06:38:34;;;;;;;36.15;18.70;;;;;;;;;;5035812;28;20053;-79
2022/04/28 06:41:01;;;;;;;34.60;19.02;;;;;;;;;;5036471;28;20099;-79
2022/04/28 06:43:29;;;;;;;36.72;18.88;;;;;;;;;;5035833;28;20051;-79
2022/04/28 06:46:15;;;;;;;37.80;20.05;;;;;;;;;;5043005;28;20056;-79
2022/04/28 06:48:41;;;;;;;32.53;17.05;;;;;;;;;;5056464;28;20518;-79
2022/04/28 06:51:08;;;;;;;52.85;17.75;;;;;;;;;;5058563;28;20056;-79
2022/04/28 06:53:35;;;;;;;33.13;16.70;;;;;;;;;;5060174;28;20103;-78
2022/04/28 06:56:02;;;;;;;36.28;19.48;;;;;;;;;;5061861;28;20056;-78
2022/04/28 06:58:30;;;;;;;34.38;19.00;;;;;;;;;;5061440;28;20082;-78
2022/04/28 07:00:57;;;;;;;34.80;17.35;;;;;;;;;;5060874;28;20045;-78
2022/04/28 07:03:24;;;;;;;32.90;17.58;;;;;;;;;;5062079;28;20160;-78
2022/04/28 07:05:53;;;;;;;31.65;16.02;;;;;;;;;;5058784;28;20049;-78
2022/04/28 07:08:19;;;;;;;28.73;16.00;;;;;;;;;;5059299;28;20112;-78
2022/04/28 07:10:47;;;;;;;32.15;17.80;;;;;;;;;;5057960;28;20053;-79
2022/04/28 07:13:14;;;;;;;30.70;17.20;;;;;;;;;;5055753;28;20044;-78
2022/04/28 07:15:42;;;;;;;28.80;15.73;;;;;;;;;;5034628;28;20042;-79
2022/04/28 07:18:09;;;;;;;28.67;15.95;;;;;;;;;;5032706;28;20046;-79
2022/04/28 07:20:37;;;;;;;26.55;15.27;;;;;;;;;;5032500;28;20527;-79
2022/04/28 07:23:03;;;;;;;27.15;14.45;;;;;;;;;;5033114;28;20092;-78
2022/04/28 07:25:31;;;;;;;29.65;15.27;;;;;;;;;;5032018;28;20060;-80
2022/04/28 07:27:58;;;;;;;26.52;16.42;;;;;;;;;;5033319;28;20152;-79
2022/04/28 07:30:26;;;;;;;25.10;13.80;;;;;;;;;;5033897;28;20050;-79
2022/04/28 07:32:54;;;;;;;22.40;13.35;;;;;;;;;;5034851;28;20414;-79
2022/04/28 07:35:23;;;;;;;22.48;13.35;;;;;;;;;;5033797;28;20049;-79
2022/04/28 07:37:50;;;;;;;22.88;13.27;;;;;;;;;;5033593;28;20444;-78
2022/04/28 07:40:18;;;;;;;22.00;12.23;;;;;;;;;;5034465;28;20037;-78
2022/04/28 07:42:45;;;;;;;25.15;15.25;;;;;;;;;;5035581;28;20081;-79
2022/04/28 07:45:12;;;;;;;24.63;13.75;;;;;;;;;;5037874;28;20041;-80
2022/04/28 07:47:39;;;;;;;27.75;17.23;;;;;;;;;;5038270;28;20057;-77
2022/04/28 07:50:10;;;;;;;24.05;13.68;;;;;;;;;;5047346;28;20029;-79
2022/04/28 07:52:37;;;;;;;23.48;13.85;;;;;;;;;;5051234;28;20060;-80
2022/04/28 07:55:05;;;;;;;21.65;12.85;;;;;;;;;;5044514;28;20049;-78
2022/04/28 07:57:33;;;;;;;27.40;16.38;;;;;;;;;;5035012;28;20450;-78
2022/04/28 08:00:00;;;;;;;23.88;14.30;;;;;;;;;;5030643;28;20074;-79
2022/04/28 08:02:27;;;;;;;23.40;13.52;;;;;;;;;;5024221;28;20081;-78
2022/04/28 08:04:54;;;;;;;23.38;13.45;;;;;;;;;;5022362;28;20446;-78
2022/04/28 08:07:23;;;;;;;23.75;14.52;;;;;;;;;;5019178;28;20060;-78
2022/04/28 08:09:50;;;;;;;21.10;12.73;;;;;;;;;;5016471;28;20050;-79
2022/04/28 08:12:17;;;;;;;24.40;13.50;;;;;;;;;;5013518;28;20611;-79
2022/04/28 08:14:43;;;;;;;21.67;13.30;;;;;;;;;;5012999;28;20049;-79
2022/04/28 08:17:10;;;;;;;24.58;14.68;;;;;;;;;;5012649;28;20471;-78
2022/04/28 08:19:37;;;;;;;24.30;14.35;;;;;;;;;;5012088;28;20054;-80
2022/04/28 08:22:04;;;;;;;20.90;13.32;;;;;;;;;;5012538;28;20103;-80
2022/04/28 08:24:32;;;;;;;21.58;13.77;;;;;;;;;;5012893;28;20050;-78
2022/04/28 08:26:59;;;;;;;20.60;11.77;;;;;;;;;;5011814;28;20104;-78
2022/04/28 08:29:26;;;;;;;20.38;12.38;;;;;;;;;;5011601;28;20058;-81
2022/04/28 08:31:53;;;;;;;20.52;13.25;;;;;;;;;;5011808;28;20521;-80
2022/04/28 08:34:21;;;;;;;23.58;12.95;;;;;;;;;;5011989;28;20520;-79
2022/04/28 08:36:48;;;;;;;21.85;14.30;;;;;;;;;;5011029;28;20232;-79
2022/04/28 08:39:16;;;;;;;17.15;11.35;;;;;;;;;;5012232;28;20042;-78
2022/04/28 08:41:46;;;;;;;21.33;11.80;;;;;;;;;;5013356;28;20050;-78
2022/04/28 08:44:17;;;;;;;22.08;12.88;;;;;;;;;;5012243;28;20555;-79
2022/04/28 08:46:53;;;;;;;20.52;13.20;;;;;;;;;;5011272;28;20046;-78
2022/04/28 08:49:23;;;;;;;23.27;12.52;;;;;;;;;;5012324;28;20061;-79
2022/04/28 08:51:52;;;;;;;22.25;13.80;;;;;;;;;;5012486;28;20113;-79
2022/04/28 08:54:20;;;;;;;23.08;12.00;;;;;;;;;;5012040;28;20050;-79
2022/04/28 08:56:50;;;;;;;18.88;11.70;;;;;;;;;;5013832;28;20085;-77
2022/04/28 08:59:17;;;;;;;18.97;11.80;;;;;;;;;;5013941;28;20073;-78
2022/04/28 09:01:44;;;;;;;20.48;12.23;;;;;;;;;;5012826;28;20303;-79
2022/04/28 09:04:12;;;;;;;17.77;10.68;;;;;;;;;;5013807;28;20337;-79
2022/04/28 09:06:40;;;;;;;17.63;10.73;;;;;;;;;;5013667;28;20112;-79
2022/04/28 09:09:09;;;;;;;21.50;11.18;;;;;;;;;;5014925;28;20397;-78
2022/04/28 09:11:37;;;;;;;20.63;12.05;;;;;;;;;;5029042;28;20077;-77
2022/04/28 09:14:10;;;;;;;16.17;10.32;;;;;;;;;;5032843;28;20144;-79
2022/04/28 09:16:38;;;;;;;19.33;10.32;;;;;;;;;;5019514;28;20053;-78
2022/04/28 09:19:05;;;;;;;21.80;10.57;;;;;;;;;;5018715;28;20049;-77
2022/04/28 09:21:35;;;;;;;17.73;9.63;;;;;;;;;;5017302;28;20108;-78
2022/04/28 09:24:02;;;;;;;20.00;11.82;;;;;;;;;;5016309;28;20046;-78
2022/04/28 09:26:29;;;;;;;18.02;9.88;;;;;;;;;;5015833;28;20128;-78
2022/04/28 09:28:57;;;;;;;19.30;10.70;;;;;;;;;;5015346;28;20053;-78
2022/04/28 09:31:25;;;;;;;17.55;10.35;;;;;;;;;;5015480;28;20050;-79
2022/04/28 09:33:52;;;;;;;19.50;11.40;;;;;;;;;;5017049;28;20050;-79
2022/04/28 09:36:19;;;;;;;19.45;12.38;;;;;;;;;;5017036;28;20045;-79
2022/04/28 09:38:45;;;;;;;20.40;11.82;;;;;;;;;;5017450;28;20592;-79
2022/04/28 09:43:57;;;;;;;14.32;8.65;;;;;;;;;;5014953;28;20684;-77
2022/04/28 09:46:25;;;;;;;17.08;9.82;;;;;;;;;;5014372;28;20108;-77
2022/04/28 09:48:53;;;;;;;17.67;10.65;;;;;;;;;;5013732;28;20050;-77
2022/04/28 09:51:22;;;;;;;17.33;10.48;;;;;;;;;;5013546;28;20054;-78
2022/04/28 09:53:51;;;;;;;19.48;11.27;;;;;;;;;;5013875;28;20269;-77
2022/04/28 09:56:24;;;;;;;25.83;15.73;;;;;;;;;;5013329;28;20057;-77
2022/04/28 09:58:51;;;;;;;17.30;10.07;;;;;;;;;;5013797;28;20408;-77
2022/04/28 10:01:19;;;;;;;16.38;9.65;;;;;;;;;;5013413;28;20484;-76
2022/04/28 10:03:48;;;;;;;17.65;10.07;;;;;;;;;;5013588;28;20485;-77
2022/04/28 10:06:17;;;;;;;15.55;10.15;;;;;;;;;;5014729;28;20050;-77
2022/04/28 10:08:46;;;;;;;15.23;10.20;;;;;;;;;;5014670;28;20049;-77
2022/04/28 10:11:17;;;;;;;19.33;10.23;;;;;;;;;;5014437;28;20085;-77
2022/04/28 10:13:46;;;;;;;21.40;10.50;;;;;;;;;;5014447;28;20046;-78
2022/04/28 10:16:14;;;;;;;19.15;11.43;;;;;;;;;;5014302;28;20501;-78
2022/04/28 10:18:53;;;;;;;15.73;8.90;;;;;;;;;;5017410;28;20568;-78
2022/04/28 10:21:30;;;;;;;17.23;8.98;;;;;;;;;;5016080;28;20069;-80
2022/04/28 10:32:54;;;;;;;115.45;39.70;;;;;;;;;;5015390;28;20057;-79
2022/04/28 10:35:34;;;;;;;89.68;31.77;;;;;;;;;;5014329;28;20069;-82
2022/04/28 10:38:10;;;;;;;123.50;40.43;;;;;;;;;;5015493;28;20073;-77
2022/04/28 10:40:38;;;;;;;30.67;14.02;;;;;;;;;;5013304;28;20373;-79
2022/04/28 10:43:18;;;;;;;23.05;10.10;;;;;;;;;;5013802;28;20077;-79
2022/04/28 10:45:46;;;;;;;102.53;33.78;;;;;;;;;;5013231;28;20046;-79
2022/04/28 10:48:29;;;;;;;15.30;8.23;;;;;;;;;;5013986;28;20046;-78
2022/04/28 10:51:07;;;;;;;10.73;6.93;;;;;;;;;;5013214;28;20145;-79
2022/04/28 10:53:35;;;;;;;56.22;18.90;;;;;;;;;;5013602;28;20130;-80
2022/04/28 10:56:09;;;;;;;55.28;21.55;;;;;;;;;;5034787;28;20049;-80
2022/04/28 10:58:37;;;;;;;24.48;11.15;;;;;;;;;;5039006;28;20125;-79
2022/04/28 11:01:05;;;;;;;25.20;11.02;;;;;;;;;;5043010;28;20057;-79
2022/04/28 11:03:47;;;;;;;28.52;12.75;;;;;;;;;;5032884;28;20156;-79
2022/04/28 11:06:14;;;;;;;19.90;10.32;;;;;;;;;;5032831;28;20415;-78
2022/04/28 11:08:47;;;;;;;23.58;11.52;;;;;;;;;;5033158;28;20041;-79
2022/04/28 11:11:14;;;;;;;20.95;9.77;;;;;;;;;;5032528;28;20460;-78
2022/04/28 11:13:56;;;;;;;21.98;10.80;;;;;;;;;;5038917;28;20049;-78
2022/04/28 11:16:23;;;;;;;15.45;9.02;;;;;;;;;;5033226;28;20095;-78
2022/04/28 11:18:50;;;;;;;24.00;12.48;;;;;;;;;;5033212;28;20488;-78
2022/04/28 11:21:17;;;;;;;22.08;12.25;;;;;;;;;;5032901;28;20116;-78
2022/04/28 11:23:47;;;;;;;17.60;8.55;;;;;;;;;;5033003;28;20075;-78
2022/04/28 11:26:14;;;;;;;27.88;11.70;;;;;;;;;;5032824;28;20046;-77
2022/04/28 11:28:42;;;;;;;21.13;10.27;;;;;;;;;;5032757;28;20096;-78
2022/04/28 11:31:11;;;;;;;17.52;9.98;;;;;;;;;;5033037;28;20722;-78
2022/04/28 11:33:43;;;;;;;26.45;12.98;;;;;;;;;;5033119;28;20060;-78
2022/04/28 11:36:27;;;;;;;38.25;16.35;;;;;;;;;;5032759;28;20135;-78
2022/04/28 11:38:58;;;;;;;26.45;12.00;;;;;;;;;;5032795;28;20052;-80
2022/04/28 11:41:31;;;;;;;15.38;9.55;;;;;;;;;;5033393;28;20071;-79
2022/04/28 11:44:01;;;;;;;28.85;12.77;;;;;;;;;;5032256;28;20461;-79
2022/04/28 11:46:28;;;;;;;18.80;10.52;;;;;;;;;;5032536;28;20041;-79
2022/04/28 11:48:55;;;;;;;16.70;9.65;;;;;;;;;;5033218;28;20532;-80
2022/04/28 11:51:25;;;;;;;20.90;10.85;;;;;;;;;;5033225;28;20107;-79
2022/04/28 11:53:54;;;;;;;19.38;11.02;;;;;;;;;;5033982;28;20050;-79
2022/04/28 11:56:25;;;;;;;22.17;10.57;;;;;;;;;;5035174;28;20090;-80
2022/04/28 11:58:54;;;;;;;24.10;13.52;;;;;;;;;;5014243;28;20054;-78
2022/04/28 12:01:21;;;;;;;16.85;9.38;;;;;;;;;;5021894;28;20085;-78
2022/04/28 12:03:54;;;;;;;13.90;8.73;;;;;;;;;;5066414;28;20047;-78
2022/04/28 12:06:23;;;;;;;18.92;10.82;;;;;;;;;;5065027;28;20049;-79
2022/04/28 12:08:52;;;;;;;17.30;9.65;;;;;;;;;;5053367;28;20481;-76
2022/04/28 12:14:26;;;;;;;14.50;9.50;;;;;;;;;;5052685;28;20060;-79
2022/04/28 12:19:51;;;;;;;18.58;10.35;;;;;;;;;;5052192;28;20462;-79
2022/04/28 12:22:25;;;;;;;18.58;10.20;;;;;;;;;;5054102;28;20047;-78
2022/04/28 12:24:52;;;;;;;20.00;9.48;;;;;;;;;;5054638;28;20076;-79
2022/04/28 12:27:20;;;;;;;17.60;10.00;;;;;;;;;;5056831;28;20048;-78
2022/04/28 12:29:52;;;;;;;16.27;10.00;;;;;;;;;;5056860;28;20051;-79
2022/04/28 12:32:21;;;;;;;18.73;10.02;;;;;;;;;;5057678;28;20048;-78
2022/04/28 12:34:57;;;;;;;24.50;11.07;;;;;;;;;;5056495;28;20542;-79
2022/04/28 12:37:26;;;;;;;13.25;9.00;;;;;;;;;;5053625;28;20099;-79
2022/04/28 12:39:57;;;;;;;15.77;8.80;;;;;;;;;;5053617;28;20072;-79
2022/04/28 12:42:29;;;;;;;16.83;9.55;;;;;;;;;;5054188;28;20091;-78
2022/04/28 12:44:57;;;;;;;15.98;10.05;;;;;;;;;;5054633;28;20055;-78
2022/04/28 12:47:35;;;;;;;16.98;9.38;;;;;;;;;;5036426;28;20520;-78
2022/04/28 12:50:04;;;;;;;18.77;9.88;;;;;;;;;;5038699;28;20053;-79
2022/04/28 12:52:33;;;;;;;16.90;9.88;;;;;;;;;;5035841;28;20049;-78
2022/04/28 12:55:05;;;;;;;18.90;9.40;;;;;;;;;;5035169;28;20420;-77
2022/04/28 12:57:34;;;;;;;22.45;10.93;;;;;;;;;;5040213;28;20045;-77
2022/04/28 13:00:02;;;;;;;17.98;10.73;;;;;;;;;;5037033;28;20046;-77
2022/04/28 13:02:31;;;;;;;16.80;9.07;;;;;;;;;;5036907;28;20583;-77
2022/04/28 13:05:09;;;;;;;25.67;12.98;;;;;;;;;;5034404;28;20053;-78
2022/04/28 13:07:36;;;;;;;22.38;11.20;;;;;;;;;;5034486;28;20124;-77
2022/04/28 13:10:03;;;;;;;16.40;8.85;;;;;;;;;;5034847;28;20556;-78
2022/04/28 13:12:30;;;;;;;18.83;10.18;;;;;;;;;;5034681;28;20049;-77
2022/04/28 13:15:01;;;;;;;21.13;11.77;;;;;;;;;;5033696;28;20061;-78
2022/04/28 13:17:28;;;;;;;18.05;10.45;;;;;;;;;;5034455;28;20053;-77
2022/04/28 13:19:55;;;;;;;17.77;10.70;;;;;;;;;;5034586;28;20045;-78
2022/04/28 13:22:22;;;;;;;21.90;10.85;;;;;;;;;;5033984;28;20107;-77
2022/04/28 13:24:48;;;;;;;16.88;10.50;;;;;;;;;;5033656;28;20049;-77
2022/04/28 13:27:15;;;;;;;20.00;12.25;;;;;;;;;;5033628;28;20566;-77
2022/04/28 13:29:42;;;;;;;23.15;13.27;;;;;;;;;;5033337;28;20169;-78
2022/04/28 13:32:11;;;;;;;17.55;10.95;;;;;;;;;;5033861;28;20087;-77
2022/04/28 13:34:38;;;;;;;16.83;10.32;;;;;;;;;;5033652;28;20057;-78
2022/04/28 13:37:06;;;;;;;16.30;9.93;;;;;;;;;;5033400;28;20045;-77
2022/04/28 13:39:33;;;;;;;19.00;11.18;;;;;;;;;;5079753;22;20167;-71
2022/04/28 13:42:00;;;;;;;18.80;10.90;;;;;;;;;;5053402;28;20052;-70
2022/04/28 13:44:27;;;;;;;18.75;10.93;;;;;;;;;;5053850;28;20128;-70
2022/04/28 13:46:55;;;;;;;17.25;10.15;;;;;;;;;;5053383;28;20164;-70
2022/04/28 13:49:23;;;;;;;17.63;10.48;;;;;;;;;;5053303;28;20080;-71
2022/04/28 13:51:50;;;;;;;18.75;11.93;;;;;;;;;;5053654;28;20075;-71
2022/04/28 13:54:17;;;;;;;18.70;12.60;;;;;;;;;;5053359;28;20049;-70
2022/04/28 13:56:44;;;;;;;14.60;9.63;;;;;;;;;;5051569;28;20049;-69
2022/04/28 13:59:12;;;;;;;19.10;11.73;;;;;;;;;;5049784;28;20041;-70
2022/04/28 14:01:39;;;;;;;19.88;12.38;;;;;;;;;;5045041;28;20045;-71
2022/04/28 14:04:07;;;;;;;19.52;14.27;;;;;;;;;;5053845;28;20052;-69
2022/04/28 14:06:37;;;;;;;19.98;12.00;;;;;;;;;;5053602;28;20048;-69
2022/04/28 14:09:05;;;;;;;;;;;;;;;;;;5055917;28;20045;-69
2022/04/28 14:11:34;;;;;;;18.30;12.20;;;;;;;;;;5053633;28;20393;-70
2022/04/28 14:14:01;;;;;;;16.02;11.98;;;;;;;;;;5052870;28;20140;-70
2022/04/28 14:16:29;;;;;;;16.90;12.07;;;;;;;;;;5052932;28;20140;-71
2022/04/28 14:18:56;;;;;;;18.80;11.63;;;;;;;;;;5053651;28;20055;-69
2022/04/28 14:21:23;;;;;;;17.73;11.18;;;;;;;;;;5052900;28;20053;-70
2022/04/28 14:23:51;;;;;;;21.40;13.68;;;;;;;;;;5052832;28;20148;-69
2022/04/28 14:26:18;;;;;;;19.50;13.85;;;;;;;;;;5053196;28;20048;-71
2022/04/28 14:28:46;;;;;;;17.38;11.18;;;;;;;;;;5052662;28;20064;-71
2022/04/28 14:31:14;;;;;;;23.77;16.40;;;;;;;;;;5053365;28;20494;-71
2022/04/28 14:33:42;;;;;;;25.98;17.05;;;;;;;;;;5052898;28;20098;-70
2022/04/28 14:36:09;;;;;;;14.13;9.90;;;;;;;;;;5053017;28;20076;-70
2022/04/28 14:38:36;;;;;;;17.25;10.85;;;;;;;;;;5053028;28;20052;-70
2022/04/28 14:41:05;;;;;;;15.57;10.15;;;;;;;;;;5052744;28;20587;-70
2022/04/28 14:43:32;;;;;;;17.80;10.50;;;;;;;;;;5052617;28;20464;-70
2022/04/28 14:45:59;;;;;;;14.88;10.38;;;;;;;;;;5045568;28;20049;-70
2022/04/28 14:48:27;;;;;;;14.50;10.30;;;;;;;;;;5032547;28;20426;-69
2022/04/28 14:53:38;;;;;;;18.35;11.80;;;;;;;;;;5032488;28;20076;-70
2022/04/28 14:56:07;;;;;;;16.95;10.52;;;;;;;;;;5032250;28;20049;-71
2022/04/28 14:58:34;;;;;;;15.15;11.07;;;;;;;;;;5032644;28;20088;-69
2022/04/28 15:01:01;;;;;;;19.77;12.27;;;;;;;;;;5031908;28;20053;-70
2022/04/28 15:03:33;;;;;;;20.20;11.85;;;;;;;;;;5032280;28;20050;-70